Time;durP1;ratioP1;P1;durP2;ratioP2;P2;SDS_P1;SDS_P2;PMS_P1;PMS_P2;Temp;Humidity;BMP_temperature;BMP_pressure;BME280_temperature;BME280_humidity;BME280_pressure;Samples;Min_cycle;Max_cycle;Signal;HPM_P1;HPM_P2
2022/12/29 00:01:55;;;;;;;1.17;0.60;;;12.70;99.90;;;;;;6154753;23;20453;-86
2022/12/29 00:04:25;;;;;;;0.90;0.80;;;12.60;99.90;;;;;;6152926;23;20439;-89
2022/12/29 00:06:54;;;;;;;0.87;0.50;;;12.70;99.90;;;;;;6150410;23;20501;-86
2022/12/29 00:09:25;;;;;;;0.73;0.60;;;12.80;99.90;;;;;;6138186;23;20490;-85
2022/12/29 00:12:00;;;;;;;1.03;0.60;;;12.90;99.90;;;;;;6137916;23;20411;-86
2022/12/29 00:17:18;;;;;;;0.60;0.60;;;12.90;99.90;;;;;;6162991;23;20443;-87
2022/12/29 00:36:42;;;;;;;0.80;0.67;;;12.90;99.90;;;;;;6177827;23;20421;-87
2022/12/29 00:44:55;;;;;;;0.60;0.60;;;13.10;99.90;;;;;;6163378;23;20442;-85
2022/12/29 00:47:28;;;;;;;0.60;0.47;;;13.00;99.90;;;;;;6138173;23;20429;-87
2022/12/29 00:49:59;;;;;;;0.50;0.50;;;13.10;99.90;;;;;;6136943;23;20425;-85
2022/12/29 00:52:38;;;;;;;0.57;0.57;;;13.00;99.90;;;;;;6140079;23;20419;-87
2022/12/29 00:55:13;;;;;;;0.40;0.40;;;13.10;99.90;;;;;;6166855;23;20484;-87
2022/12/29 00:57:46;;;;;;;0.70;0.50;;;13.30;99.90;;;;;;6138032;23;20407;-85
2022/12/29 01:00:18;;;;;;;0.93;0.60;;;13.30;99.90;;;;;;6137451;23;20422;-87
2022/12/29 01:02:50;;;;;;;0.80;0.60;;;13.30;99.90;;;;;;6142243;23;20447;-85
2022/12/29 01:05:26;;;;;;;0.50;0.50;;;13.30;99.90;;;;;;6143648;23;20638;-86
2022/12/29 01:07:58;;;;;;;1.20;0.70;;;13.30;99.90;;;;;;6144153;23;20906;-85
2022/12/29 01:10:29;;;;;;;0.83;0.67;;;13.40;99.90;;;;;;6139427;23;20406;-86
2022/12/29 01:13:04;;;;;;;0.53;0.50;;;13.30;99.90;;;;;;6135925;23;20790;-87
2022/12/29 01:15:36;;;;;;;0.50;0.50;;;13.30;99.90;;;;;;6135708;23;20438;-86
2022/12/29 01:18:15;;;;;;;0.40;0.40;;;13.30;99.90;;;;;;6136938;23;20430;-87
2022/12/29 01:20:45;;;;;;;0.40;0.40;;;13.20;99.90;;;;;;6134756;23;20473;-87
2022/12/29 01:23:18;;;;;;;0.40;0.40;;;13.30;99.90;;;;;;6139619;23;20453;-84
2022/12/29 01:25:50;;;;;;;0.50;0.40;;;13.30;99.90;;;;;;6136721;23;20792;-84
2022/12/29 01:28:25;;;;;;;0.40;0.40;;;13.30;99.90;;;;;;6156996;23;20403;-89
2022/12/29 01:30:53;;;;;;;0.50;0.40;;;13.40;99.90;;;;;;6152231;23;20495;-86
2022/12/29 01:33:23;;;;;;;0.40;0.30;;;13.50;99.90;;;;;;6135772;23;20934;-85
2022/12/29 01:35:54;;;;;;;0.50;0.40;;;13.50;99.90;;;;;;6136409;23;20688;-86
2022/12/29 01:38:33;;;;;;;0.40;0.40;;;13.50;99.90;;;;;;6135611;23;20465;-86
2022/12/29 01:41:06;;;;;;;0.70;0.50;;;13.60;99.90;;;;;;6159394;23;20407;-86
2022/12/29 01:43:46;;;;;;;0.43;0.43;;;13.60;99.90;;;;;;6136559;23;20430;-87
2022/12/29 01:46:37;;;;;;;0.70;0.70;;;13.60;99.90;;;;;;6136520;23;20747;-86
2022/12/29 01:49:29;;;;;;;0.40;0.40;;;13.60;99.90;;;;;;6160700;23;20402;-86
2022/12/29 01:52:15;;;;;;;0.43;0.40;;;13.50;99.90;;;;;;6139479;23;20494;-86
2022/12/29 01:54:55;;;;;;;0.80;0.40;;;13.50;99.90;;;;;;6163982;23;20407;-85
2022/12/29 01:57:54;;;;;;;0.60;0.50;;;13.70;99.50;;;;;;6144885;23;20486;-88
2022/12/29 02:00:59;;;;;;;0.50;0.50;;;13.70;99.10;;;;;;6161549;23;20394;-87
2022/12/29 02:03:44;;;;;;;1.63;0.60;;;13.60;98.90;;;;;;6157912;23;20427;-86
2022/12/29 02:06:31;;;;;;;0.50;0.50;;;13.60;98.60;;;;;;6143248;23;20410;-86
2022/12/29 02:08:59;;;;;;;0.40;0.40;;;13.60;98.70;;;;;;6136555;23;20418;-85
2022/12/29 02:11:32;;;;;;;1.00;0.50;;;13.80;98.20;;;;;;6162587;23;20406;-87
2022/12/29 02:14:09;;;;;;;0.90;0.50;;;13.80;97.90;;;;;;6138496;23;20427;-86
2022/12/29 02:17:01;;;;;;;0.60;0.60;;;13.90;97.70;;;;;;6146110;23;20403;-86
2022/12/29 02:19:59;;;;;;;0.63;0.50;;;13.70;97.90;;;;;;6162675;23;20493;-86
2022/12/29 02:22:59;;;;;;;1.33;0.50;;;13.70;97.70;;;;;;6142818;23;21028;-86
2022/12/29 02:25:46;;;;;;;0.67;0.67;;;13.60;98.10;;;;;;6167282;23;20518;-87
2022/12/29 02:28:40;;;;;;;0.50;0.50;;;13.80;97.50;;;;;;6146038;23;20419;-84
2022/12/29 02:31:32;;;;;;;1.10;0.80;;;13.80;97.40;;;;;;6170861;23;20438;-86
2022/12/29 02:34:30;;;;;;;1.00;0.60;;;13.70;97.60;;;;;;6144851;23;20466;-86
2022/12/29 02:37:52;;;;;;;1.43;0.70;;;13.90;97.30;;;;;;6143885;23;20435;-85
2022/12/29 02:40:44;;;;;;;0.60;0.60;;;13.90;97.20;;;;;;6142383;23;20398;-86
2022/12/29 02:43:49;;;;;;;1.37;0.80;;;13.90;97.30;;;;;;6137210;23;20459;-85
2022/12/29 02:46:53;;;;;;;2.07;1.00;;;13.90;97.50;;;;;;6141489;23;20428;-85
2022/12/29 02:49:39;;;;;;;0.80;0.73;;;13.90;97.40;;;;;;6141897;23;20430;-85
2022/12/29 02:52:31;;;;;;;0.87;0.60;;;13.80;97.70;;;;;;6141284;23;20470;-87
2022/12/29 02:55:18;;;;;;;1.80;0.70;;;13.70;98.00;;;;;;6167296;23;20422;-85
2022/12/29 02:58:17;;;;;;;3.33;0.73;;;13.80;98.10;;;;;;6141914;23;20891;-87
2022/12/29 03:01:07;;;;;;;0.47;0.47;;;13.80;98.40;;;;;;6139697;23;20415;-84
2022/12/29 03:04:32;;;;;;;0.50;0.50;;;13.80;98.80;;;;;;6136668;23;20437;-86
2022/12/29 03:07:34;;;;;;;0.80;0.70;;;13.70;99.20;;;;;;6120558;23;20407;-85
2022/12/29 03:10:47;;;;;;;0.50;0.50;;;13.60;99.70;;;;;;6141858;23;20415;-86
2022/12/29 03:17:23;;;;;;;0.70;0.53;;;13.70;99.80;;;;;;6163462;23;20406;-85
2022/12/29 03:20:24;;;;;;;0.70;0.70;;;13.60;99.90;;;;;;6140851;23;20419;-85
2022/12/29 03:23:22;;;;;;;0.60;0.60;;;13.70;99.90;;;;;;6138601;23;20457;-86
2022/12/29 03:26:14;;;;;;;0.60;0.60;;;13.60;99.90;;;;;;6166641;23;20406;-86
2022/12/29 03:28:57;;;;;;;1.43;0.80;;;13.60;99.90;;;;;;6112665;23;20442;-87
2022/12/29 03:32:04;;;;;;;1.10;0.73;;;13.50;99.90;;;;;;6167223;23;20446;-87
2022/12/29 03:35:09;;;;;;;0.50;0.50;;;13.60;99.90;;;;;;6164472;23;20497;-87
2022/12/29 03:38:28;;;;;;;0.50;0.50;;;13.50;99.90;;;;;;6162601;23;20395;-86
2022/12/29 03:41:13;;;;;;;1.10;0.50;;;13.50;99.90;;;;;;6142569;23;20403;-88
2022/12/29 03:43:58;;;;;;;0.40;0.40;;;13.50;99.90;;;;;;6165005;23;20454;-86
2022/12/29 03:46:57;;;;;;;1.47;0.57;;;13.60;99.90;;;;;;6149922;23;20381;-88
2022/12/29 03:49:55;;;;;;;0.60;0.60;;;13.50;99.90;;;;;;6143931;23;20417;-87
2022/12/29 03:52:23;;;;;;;1.10;0.60;;;13.60;99.90;;;;;;6163861;23;20438;-85
2022/12/29 03:55:12;;;;;;;1.33;0.67;;;13.60;99.90;;;;;;6139889;23;20411;-85
2022/12/29 03:57:54;;;;;;;1.03;0.53;;;13.60;99.90;;;;;;6140741;23;20403;-85
2022/12/29 04:00:28;;;;;;;0.63;0.60;;;13.50;99.90;;;;;;6139140;23;20502;-85
2022/12/29 04:03:03;;;;;;;0.70;0.50;;;13.50;99.90;;;;;;6144362;23;20450;-85
2022/12/29 04:05:40;;;;;;;0.80;0.77;;;13.50;99.90;;;;;;6153133;23;20422;-88
2022/12/29 04:08:14;;;;;;;1.80;0.60;;;13.50;99.90;;;;;;6154672;23;20416;-88
2022/12/29 04:10:59;;;;;;;0.57;0.53;;;13.50;99.90;;;;;;6140129;23;20418;-86
2022/12/29 04:13:54;;;;;;;;;;;;;;;;;;;;;
2022/12/29 04:16:50;;;;;;;0.70;0.60;;;13.50;99.90;;;;;;6163290;23;20402;-85
2022/12/29 04:19:29;;;;;;;0.60;0.60;;;13.50;99.90;;;;;;6142046;23;20396;-86
2022/12/29 04:22:33;;;;;;;1.53;0.70;;;13.50;99.90;;;;;;6139488;23;20438;-84
2022/12/29 04:25:21;;;;;;;1.40;0.57;;;13.40;99.90;;;;;;6116653;23;20429;-86
2022/12/29 04:28:05;;;;;;;1.37;0.50;;;13.40;99.90;;;;;;6138806;23;20442;-85
2022/12/29 04:30:55;;;;;;;0.73;0.50;;;13.40;99.90;;;;;;6135896;23;20470;-84
2022/12/29 04:33:38;;;;;;;0.63;0.50;;;13.30;99.90;;;;;;6133809;23;20434;-85
2022/12/29 04:36:24;;;;;;;1.40;1.00;;;13.40;99.90;;;;;;6118100;23;20476;-85
2022/12/29 04:39:13;;;;;;;0.50;0.50;;;13.40;99.90;;;;;;6159007;23;20422;-84
2022/12/29 04:41:52;;;;;;;0.40;0.40;;;13.50;99.90;;;;;;6135950;23;20442;-84
2022/12/29 04:44:44;;;;;;;0.70;0.50;;;13.50;99.90;;;;;;6136525;23;20434;-85
2022/12/29 04:47:28;;;;;;;0.50;0.50;;;13.40;99.90;;;;;;6134116;23;20427;-86
2022/12/29 04:50:14;;;;;;;1.10;0.60;;;13.40;99.90;;;;;;6136823;23;20505;-85
2022/12/29 04:52:46;;;;;;;1.73;0.60;;;13.40;99.90;;;;;;6135219;23;20448;-85
2022/12/29 04:55:16;;;;;;;1.17;1.07;;;13.10;99.90;;;;;;6135090;23;20419;-85
2022/12/29 04:58:06;;;;;;;0.50;0.50;;;13.30;99.90;;;;;;6178436;23;20485;-89
2022/12/29 05:00:39;;;;;;;1.07;0.70;;;13.60;99.70;;;;;;6155559;23;20418;-88
2022/12/29 05:03:25;;;;;;;1.53;0.60;;;13.60;99.20;;;;;;6179155;23;20438;-87
2022/12/29 05:06:24;;;;;;;1.33;1.23;;;13.20;99.60;;;;;;6180501;23;20555;-85
2022/12/29 05:08:53;;;;;;;1.83;0.70;;;13.50;99.50;;;;;;6165882;23;20417;-85
2022/12/29 05:11:26;;;;;;;0.60;0.60;;;13.40;99.10;;;;;;6135689;23;20926;-84
2022/12/29 05:14:04;;;;;;;0.70;0.50;;;13.30;99.20;;;;;;6160302;23;20494;-85
2022/12/29 05:16:43;;;;;;;0.70;0.60;;;13.30;99.10;;;;;;6133491;23;20470;-85
2022/12/29 05:19:36;;;;;;;0.50;0.50;;;13.30;99.30;;;;;;6136880;23;20465;-87
2022/12/29 05:22:05;;;;;;;1.13;0.50;;;13.30;99.20;;;;;;6134775;23;20500;-86
2022/12/29 05:24:43;;;;;;;1.13;0.60;;;13.40;99.10;;;;;;6161623;23;20442;-85
2022/12/29 05:27:23;;;;;;;0.60;0.60;;;13.50;98.60;;;;;;6137586;23;20423;-86
2022/12/29 05:30:21;;;;;;;0.77;0.63;;;13.50;98.30;;;;;;6099904;23;20401;-87
2022/12/29 05:33:06;;;;;;;1.07;0.70;;;13.50;98.10;;;;;;6101563;23;20427;-86
2022/12/29 05:39:01;;;;;;;0.70;0.70;;;13.50;98.40;;;;;;6108920;23;20364;-85
2022/12/29 05:42:01;;;;;;;0.60;0.60;;;13.70;97.80;;;;;;6110631;23;20444;-84
2022/12/29 05:44:31;;;;;;;0.70;0.70;;;13.60;97.60;;;;;;6100588;23;20475;-84
2022/12/29 05:47:27;;;;;;;;;;;;;;;;;;;;;
2022/12/29 05:50:17;;;;;;;0.50;0.50;;;13.70;97.60;;;;;;6097726;23;20385;-85
2022/12/29 05:52:51;;;;;;;1.03;0.50;;;13.70;97.40;;;;;;6098846;23;20436;-85
2022/12/29 05:55:51;;;;;;;0.47;0.40;;;13.70;97.70;;;;;;6096069;23;20470;-87
2022/12/29 05:58:29;;;;;;;0.57;0.40;;;13.70;97.80;;;;;;6069763;23;20480;-86
2022/12/29 06:01:03;;;;;;;0.87;0.40;;;13.40;98.40;;;;;;6069285;23;20427;-85
2022/12/29 06:03:49;;;;;;;0.57;0.57;;;13.60;98.00;;;;;;6097233;23;20487;-85
2022/12/29 06:06:26;;;;;;;2.33;0.50;;;13.40;98.20;;;;;;6103194;23;20385;-86
2022/12/29 06:08:56;;;;;;;0.77;0.60;;;13.60;98.30;;;;;;6135581;23;20411;-86
2022/12/29 06:11:42;;;;;;;0.60;0.50;;;13.60;98.00;;;;;;6134093;23;20407;-86
2022/12/29 06:14:23;;;;;;;0.60;0.47;;;13.30;98.30;;;;;;6134323;23;20431;-85
2022/12/29 06:16:57;;;;;;;0.90;0.60;;;13.40;98.40;;;;;;6136400;23;20411;-85
2022/12/29 06:19:34;;;;;;;1.23;1.10;;;13.10;98.60;;;;;;6135504;23;20504;-84
2022/12/29 06:22:01;;;;;;;0.97;0.50;;;13.20;99.00;;;;;;6135464;23;20407;-87
2022/12/29 06:24:50;;;;;;;;;;;;;;;;;;;;;
2022/12/29 06:27:45;;;;;;;2.00;0.60;;;13.50;98.30;;;;;;6160283;23;20423;-86
2022/12/29 06:30:42;;;;;;;0.53;0.43;;;13.70;97.40;;;;;;6136661;23;20431;-88
2022/12/29 06:33:34;;;;;;;0.70;0.50;;;13.80;97.50;;;;;;6136152;23;20442;-86
2022/12/29 06:36:16;;;;;;;0.87;0.57;;;13.80;97.50;;;;;;6125154;23;20415;-86
2022/12/29 06:38:52;;;;;;;0.60;0.50;;;13.80;97.70;;;;;;6159391;23;20477;-86
2022/12/29 06:41:23;;;;;;;1.27;0.53;;;13.80;97.90;;;;;;6133410;23;20898;-87
2022/12/29 06:44:14;;;;;;;1.90;0.57;;;13.60;98.20;;;;;;6168574;23;20457;-86
2022/12/29 06:46:42;;;;;;;0.40;0.40;;;13.60;98.50;;;;;;6143797;23;20933;-88
2022/12/29 06:49:20;;;;;;;0.60;0.60;;;13.30;99.10;;;;;;6140973;23;20445;-87
2022/12/29 06:52:03;;;;;;;;;;;;;;;;;;;;;
2022/12/29 06:54:41;;;;;;;0.60;0.47;;;13.60;99.20;;;;;;6161659;23;20477;-87
2022/12/29 06:57:29;;;;;;;0.53;0.40;;;13.50;99.20;;;;;;6142490;23;20414;-86
2022/12/29 07:00:16;;;;;;;1.57;0.50;;;13.20;99.50;;;;;;6143414;23;20489;-88
2022/12/29 07:03:03;;;;;;;0.87;0.40;;;13.40;99.80;;;;;;6146146;23;20451;-86
2022/12/29 07:05:45;;;;;;;0.57;0.50;;;13.60;98.70;;;;;;6149976;23;20429;-87
2022/12/29 07:08:32;;;;;;;1.33;0.70;;;13.70;98.20;;;;;;6139340;23;20434;-86
2022/12/29 07:11:17;;;;;;;0.87;0.57;;;13.40;98.50;;;;;;6136930;23;20410;-87
2022/12/29 07:13:48;;;;;;;0.67;0.40;;;13.50;98.20;;;;;;6159023;23;20518;-86
2022/12/29 07:16:19;;;;;;;1.10;0.60;;;13.60;97.50;;;;;;6161811;23;20419;-87
2022/12/29 07:18:48;;;;;;;1.53;0.80;;;13.50;97.50;;;;;;6162449;23;20467;-87
2022/12/29 07:21:29;;;;;;;1.70;0.60;;;13.30;97.80;;;;;;6138773;23;20418;-87
2022/12/29 07:23:57;;;;;;;1.00;0.60;;;13.40;97.30;;;;;;6136004;23;20446;-87
2022/12/29 07:26:24;;;;;;;1.20;0.67;;;13.10;97.50;;;;;;6136305;23;20414;-86
2022/12/29 07:29:00;;;;;;;0.63;0.50;;;13.10;97.50;;;;;;6137138;23;20758;-85
2022/12/29 07:31:49;;;;;;;2.07;0.70;;;13.00;97.80;;;;;;6136535;23;20411;-86
2022/12/29 07:34:54;;;;;;;0.60;0.40;;;13.10;97.80;;;;;;6088606;23;20665;-85
2022/12/29 07:37:26;;;;;;;0.97;0.50;;;13.00;97.70;;;;;;6109254;23;20907;-86
2022/12/29 07:40:03;;;;;;;1.57;1.40;;;13.20;97.40;;;;;;6134390;23;20427;-86
2022/12/29 07:42:46;;;;;;;;;;;;;;;;;;;;;
2022/12/29 07:46:03;;;;;;;2.87;0.73;;;13.00;97.90;;;;;;6162235;23;20438;-86
2022/12/29 07:48:54;;;;;;;1.03;0.53;;;12.90;97.90;;;;;;6137356;23;20407;-87
2022/12/29 07:51:28;;;;;;;0.80;0.60;;;13.20;97.60;;;;;;6135660;23;20410;-85
2022/12/29 07:54:00;;;;;;;0.50;0.40;;;13.10;97.30;;;;;;6161481;23;20434;-87
2022/12/29 07:56:33;;;;;;;2.80;1.43;;;13.20;97.60;;;;;;6135872;23;20454;-86
2022/12/29 07:59:06;;;;;;;1.17;0.60;;;13.00;97.50;;;;;;6135504;23;20403;-85
2022/12/29 08:01:49;;;;;;;1.33;0.53;;;13.00;97.60;;;;;;6135740;23;20424;-86
2022/12/29 08:04:23;;;;;;;3.33;0.63;;;13.20;97.40;;;;;;6135411;23;20454;-88
2022/12/29 08:06:53;;;;;;;3.03;0.97;;;13.00;97.40;;;;;;6133253;23;20486;-88
2022/12/29 08:09:34;;;;;;;0.93;0.70;;;13.00;97.60;;;;;;6133850;23;20788;-88
2022/12/29 08:12:10;;;;;;;1.63;0.80;;;12.90;97.60;;;;;;6135076;23;20435;-85
2022/12/29 08:14:48;;;;;;;1.20;0.90;;;13.20;97.20;;;;;;6159542;23;20470;-85
2022/12/29 08:17:22;;;;;;;3.60;0.67;;;13.20;97.10;;;;;;6134320;23;20415;-86
2022/12/29 08:19:53;;;;;;;3.23;0.80;;;13.20;96.70;;;;;;6134361;23;20414;-84
2022/12/29 08:22:23;;;;;;;2.67;1.20;;;13.10;96.50;;;;;;6136942;23;20415;-85
2022/12/29 08:25:14;;;;;;;1.10;0.80;;;13.10;96.60;;;;;;6137108;23;20624;-86
2022/12/29 08:27:43;;;;;;;2.00;0.60;;;13.10;96.70;;;;;;6163026;23;20406;-85
2022/12/29 08:30:16;;;;;;;2.30;1.00;;;13.20;96.50;;;;;;6161647;23;20411;-85
2022/12/29 08:32:47;;;;;;;1.40;0.73;;;13.20;96.40;;;;;;6135575;23;20454;-87
2022/12/29 08:35:21;;;;;;;2.47;0.70;;;13.10;96.20;;;;;;6160347;23;20419;-86
2022/12/29 08:38:19;;;;;;;1.50;0.70;;;13.20;95.50;;;;;;6160417;23;20410;-87
2022/12/29 08:41:22;;;;;;;1.00;0.90;;;13.40;95.10;;;;;;6133903;23;20415;-85
2022/12/29 08:44:04;;;;;;;0.90;0.60;;;13.20;95.20;;;;;;6134842;23;20447;-86
2022/12/29 08:46:36;;;;;;;2.27;1.23;;;13.30;95.10;;;;;;6136549;23;20410;-86
2022/12/29 08:49:24;;;;;;;1.87;0.63;;;13.20;94.90;;;;;;6140770;23;20426;-88
2022/12/29 08:52:07;;;;;;;2.17;2.00;;;13.20;95.00;;;;;;6153822;23;20399;-89
2022/12/29 08:54:47;;;;;;;3.20;1.00;;;13.40;94.20;;;;;;6157068;23;20427;-88
2022/12/29 08:57:23;;;;;;;3.87;0.83;;;13.20;94.20;;;;;;6157874;23;20391;-86
2022/12/29 08:59:59;;;;;;;2.77;1.00;;;13.10;94.50;;;;;;6158431;23;20410;-86
2022/12/29 09:02:37;;;;;;;3.80;1.80;;;13.10;94.40;;;;;;6142889;23;20414;-85
2022/12/29 09:05:12;;;;;;;3.80;1.10;;;13.10;94.50;;;;;;6167350;23;20391;-85
2022/12/29 09:07:45;;;;;;;1.00;0.70;;;13.10;94.30;;;;;;6143666;23;20407;-84
2022/12/29 09:10:44;;;;;;;3.10;0.50;;;12.90;94.20;;;;;;6138603;23;20442;-84
2022/12/29 09:13:47;;;;;;;2.47;0.70;;;13.00;94.00;;;;;;6153907;23;20439;-86
2022/12/29 09:16:18;;;;;;;2.43;0.80;;;13.10;93.60;;;;;;6164067;23;20819;-86
2022/12/29 09:18:48;;;;;;;1.50;0.50;;;13.00;93.40;;;;;;6137904;23;20847;-85
2022/12/29 09:21:19;;;;;;;1.63;0.60;;;12.90;93.70;;;;;;6170040;23;20409;-86
2022/12/29 09:23:51;;;;;;;2.10;1.10;;;13.30;93.50;;;;;;6157361;23;20443;-88
2022/12/29 09:26:24;;;;;;;1.80;1.27;;;13.20;93.00;;;;;;6145751;23;20446;-86
2022/12/29 09:28:57;;;;;;;1.03;0.73;;;13.00;93.30;;;;;;6138692;23;20526;-86
2022/12/29 09:31:27;;;;;;;2.83;0.90;;;13.20;93.20;;;;;;6161435;23;20402;-85
2022/12/29 09:34:00;;;;;;;2.50;0.67;;;13.20;93.00;;;;;;6164868;23;20458;-85
2022/12/29 09:36:27;;;;;;;2.80;0.97;;;13.10;93.20;;;;;;6137231;23;20437;-85
2022/12/29 09:38:57;;;;;;;2.00;0.90;;;13.70;92.30;;;;;;6112460;23;20422;-85
2022/12/29 09:41:39;;;;;;;3.03;0.80;;;14.20;91.60;;;;;;6138321;23;20410;-87
2022/12/29 09:44:34;;;;;;;1.57;0.80;;;14.80;90.00;;;;;;6163892;23;20525;-86
2022/12/29 09:47:08;;;;;;;1.33;0.77;;;15.00;89.90;;;;;;6138419;23;20410;-87
2022/12/29 09:50:20;;;;;;;2.30;1.00;;;16.00;85.60;;;;;;6142067;23;20442;-87
2022/12/29 09:53:21;;;;;;;3.33;1.10;;;16.90;80.50;;;;;;6144544;23;20434;-85
2022/12/29 09:55:52;;;;;;;1.87;1.00;;;16.90;77.10;;;;;;6141762;23;20413;-87
2022/12/29 09:59:03;;;;;;;5.30;1.30;;;16.70;78.20;;;;;;6169701;23;20421;-86
2022/12/29 10:02:15;;;;;;;4.97;0.97;;;17.00;76.70;;;;;;6146958;23;20415;-89
2022/12/29 10:04:47;;;;;;;2.50;0.93;;;16.80;76.20;;;;;;6083855;23;20452;-87
2022/12/29 10:07:40;;;;;;;3.70;0.93;;;16.60;75.50;;;;;;6152955;23;20457;-87
2022/12/29 10:10:45;;;;;;;1.43;0.90;;;15.80;76.90;;;;;;6174570;23;20410;-85
2022/12/29 10:13:54;;;;;;;2.97;1.20;;;15.40;79.60;;;;;;6148067;23;20464;-85
2022/12/29 10:16:45;;;;;;;6.03;1.07;;;15.10;81.10;;;;;;6137995;23;20448;-87
2022/12/29 10:19:36;;;;;;;2.20;0.80;;;15.00;81.50;;;;;;6144972;23;20417;-87
2022/12/29 10:22:46;;;;;;;3.90;1.00;;;14.90;82.30;;;;;;6145067;23;20441;-85
2022/12/29 10:25:23;;;;;;;4.07;0.80;;;14.50;82.40;;;;;;6175138;23;20426;-86
2022/12/29 10:27:57;;;;;;;4.30;1.20;;;14.50;83.90;;;;;;6151863;23;20474;-88
2022/12/29 10:30:30;;;;;;;2.60;1.80;;;14.70;82.80;;;;;;6175684;23;20758;-86
2022/12/29 10:33:04;;;;;;;3.90;1.30;;;14.50;83.40;;;;;;6144724;23;20422;-87
2022/12/29 10:35:45;;;;;;;2.20;1.10;;;14.50;83.50;;;;;;6144530;23;20439;-87
2022/12/29 10:38:41;;;;;;;1.10;1.00;;;14.60;82.60;;;;;;6141718;23;20717;-87
2022/12/29 10:41:38;;;;;;;4.53;1.13;;;14.40;82.50;;;;;;6148422;23;20434;-88
2022/12/29 10:44:29;;;;;;;4.67;1.03;;;14.70;81.90;;;;;;6173763;23;20494;-87
2022/12/29 10:47:38;;;;;;;2.97;0.87;;;14.70;80.90;;;;;;6118884;23;20410;-86
2022/12/29 10:54:10;;;;;;;1.50;0.77;;;14.50;82.80;;;;;;6165816;23;20442;-87
2022/12/29 10:56:48;;;;;;;2.23;1.00;;;14.70;81.70;;;;;;6153636;23;20508;-85
2022/12/29 10:59:31;;;;;;;2.73;0.90;;;14.50;82.90;;;;;;6138400;23;20433;-85
2022/12/29 11:02:04;;;;;;;8.10;1.30;;;14.50;83.50;;;;;;6138471;23;20411;-86
2022/12/29 11:05:10;;;;;;;2.00;0.80;;;14.40;83.20;;;;;;6138287;23;20449;-86
2022/12/29 11:07:51;;;;;;;4.17;1.40;;;14.20;84.10;;;;;;6163924;23;20485;-87
2022/12/29 11:10:56;;;;;;;1.70;0.50;;;14.20;84.70;;;;;;6138827;23;20442;-86
2022/12/29 11:13:53;;;;;;;1.90;0.93;;;14.20;84.90;;;;;;6137493;23;20425;-86
2022/12/29 11:16:36;;;;;;;2.77;0.90;;;14.30;85.30;;;;;;6135917;23;20469;-85
2022/12/29 11:19:30;;;;;;;2.30;0.97;;;14.40;84.80;;;;;;6147730;23;20442;-88
2022/12/29 11:22:38;;;;;;;1.13;0.90;;;14.40;85.40;;;;;;6157183;23;20418;-87
2022/12/29 11:28:49;;;;;;;2.63;0.90;;;14.60;84.70;;;;;;6120138;23;20420;-89
2022/12/29 11:31:44;;;;;;;3.90;0.93;;;14.70;83.20;;;;;;6102044;23;20419;-87
2022/12/29 11:34:46;;;;;;;1.80;0.70;;;14.40;83.80;;;;;;6138395;23;20740;-84
2022/12/29 11:37:58;;;;;;;3.40;0.80;;;14.30;84.70;;;;;;6141965;23;20407;-84
2022/12/29 11:40:42;;;;;;;4.37;1.23;;;14.20;84.80;;;;;;6137706;23;20414;-85
2022/12/29 11:44:10;;;;;;;2.67;1.00;;;14.10;85.30;;;;;;6158458;23;20601;-85
2022/12/29 11:47:11;;;;;;;3.70;0.80;;;14.20;85.90;;;;;;6164939;23;20403;-85
2022/12/29 11:50:31;;;;;;;;;;;;;;;;;;;;;
2022/12/29 11:53:42;;;;;;;3.03;0.90;;;14.10;86.50;;;;;;6159994;23;20445;-85
2022/12/29 11:56:39;;;;;;;2.90;1.00;;;14.00;86.80;;;;;;6136413;23;20879;-86
2022/12/29 11:59:56;;;;;;;2.67;1.33;;;14.10;86.70;;;;;;6137952;23;20421;-86
2022/12/29 12:03:27;;;;;;;2.37;1.73;;;14.00;87.00;;;;;;6144608;23;20495;-87
2022/12/29 12:06:30;;;;;;;2.73;0.90;;;14.10;86.40;;;;;;6165255;23;20475;-86
2022/12/29 12:09:23;;;;;;;4.50;1.10;;;13.90;87.10;;;;;;6165279;23;20406;-88
2022/12/29 12:12:05;;;;;;;1.87;0.60;;;14.20;86.40;;;;;;6154110;23;20446;-88
2022/12/29 12:14:54;;;;;;;2.90;1.00;;;14.20;85.70;;;;;;6143437;23;20910;-87
2022/12/29 12:18:27;;;;;;;;;;;;;;;;;;;;;
2022/12/29 12:21:20;;;;;;;3.27;1.00;;;14.00;86.10;;;;;;6151056;23;20453;-85
2022/12/29 12:24:18;;;;;;;2.30;0.93;;;14.00;86.20;;;;;;6148488;23;20494;-88
2022/12/29 12:26:59;;;;;;;1.77;0.90;;;13.90;86.90;;;;;;6133757;23;20422;-87
2022/12/29 12:29:52;;;;;;;2.57;1.10;;;13.80;87.40;;;;;;6138525;23;20452;-85
2022/12/29 12:32:46;;;;;;;2.70;1.00;;;13.70;88.00;;;;;;6138174;23;20495;-84
2022/12/29 12:35:35;;;;;;;3.50;1.27;;;13.70;88.10;;;;;;6164524;23;20403;-86
2022/12/29 12:38:24;;;;;;;1.13;0.73;;;13.70;88.20;;;;;;6164350;23;20771;-87
2022/12/29 12:41:13;;;;;;;4.13;1.20;;;13.80;88.00;;;;;;6136851;23;20422;-84
2022/12/29 12:47:14;;;;;;;4.17;1.17;;;13.60;89.10;;;;;;6176259;23;20457;-86
2022/12/29 12:58:33;;;;;;;;;;;;;;;;;;;;;
2022/12/29 13:16:59;;;;;;;3.93;1.20;;;13.90;90.00;;;;;;6212907;23;20448;-89
2022/12/29 13:20:33;;;;;;;1.80;0.70;;;13.80;89.50;;;;;;6095694;23;20847;-87
2022/12/29 13:27:39;;;;;;;;;;;;;;;;;;;;;
2022/12/29 13:31:29;;;;;;;2.70;1.10;;;13.60;90.30;;;;;;6183271;23;20403;-90
2022/12/29 13:53:30;;;;;;;4.53;1.03;;;13.50;91.00;;;;;;6196846;23;20461;-85
2022/12/29 14:00:55;;;;;;;3.23;1.27;;;13.50;90.70;;;;;;6209462;23;21192;-85
2022/12/29 14:04:29;;;;;;;5.77;1.30;;;13.30;91.20;;;;;;6085740;23;20558;-84
2022/12/29 14:07:28;;;;;;;4.27;1.23;;;13.30;91.70;;;;;;6150538;23;20476;-86
2022/12/29 14:11:29;;;;;;;3.73;1.07;;;13.30;91.70;;;;;;6147852;23;20414;-84
2022/12/29 14:15:40;;;;;;;;;;;;;;;;;;;;;
2022/12/29 14:19:00;;;;;;;;;;;;;;;;;;;;;
2022/12/29 14:30:23;;;;;;;3.83;1.20;;;13.30;92.00;;;;;;5941871;24;20410;-86
2022/12/29 14:33:41;;;;;;;1.40;0.90;;;13.30;92.10;;;;;;6061880;23;20536;-85
2022/12/29 14:36:58;;;;;;;3.77;1.33;;;13.20;92.50;;;;;;6059288;23;20948;-84
2022/12/29 14:40:22;;;;;;;3.00;1.13;;;13.50;92.10;;;;;;5943068;23;20474;-87
2022/12/29 14:48:18;;;;;;;3.73;1.40;;;13.50;92.40;;;;;;6116631;23;20399;-86
2022/12/29 14:52:12;;;;;;;3.17;1.13;;;13.10;93.10;;;;;;6028715;23;20425;-86
2022/12/29 14:55:54;;;;;;;4.80;1.07;;;12.90;93.60;;;;;;6026370;23;20495;-86
2022/12/29 15:06:17;;;;;;;;;;;;;;;;;;;;;
2022/12/29 15:09:26;;;;;;;6.13;1.50;;;13.10;93.20;;;;;;6096611;23;20400;-85
2022/12/29 15:16:25;;;;;;;3.70;1.87;;;12.90;93.30;;;;;;6151952;23;20424;-83
2022/12/29 15:20:25;;;;;;;3.13;1.17;;;12.80;93.20;;;;;;6137193;23;20396;-86
2022/12/29 15:23:34;;;;;;;2.23;1.20;;;12.70;93.10;;;;;;6101146;23;20498;-84
2022/12/29 15:26:55;;;;;;;2.80;1.30;;;12.80;93.20;;;;;;6189274;23;20402;-85
2022/12/29 15:29:43;;;;;;;3.07;1.50;;;12.90;92.80;;;;;;6186801;23;20412;-83
2022/12/29 15:32:32;;;;;;;5.00;1.50;;;12.80;92.90;;;;;;6184276;23;20401;-83
2022/12/29 15:35:24;;;;;;;3.23;1.13;;;12.60;93.20;;;;;;6212021;23;20405;-86
2022/12/29 15:38:00;;;;;;;2.60;0.97;;;12.50;93.20;;;;;;6210827;23;20409;-82
2022/12/29 15:40:32;;;;;;;2.30;1.33;;;12.40;93.50;;;;;;6187325;23;20415;-84
2022/12/29 15:43:29;;;;;;;5.70;1.80;;;12.40;93.50;;;;;;6195106;23;20443;-86
2022/12/29 15:46:04;;;;;;;2.97;2.07;;;12.50;93.70;;;;;;6218880;23;20444;-85
2022/12/29 15:48:38;;;;;;;2.63;1.10;;;12.20;93.80;;;;;;6198374;23;20413;-84
2022/12/29 15:51:19;;;;;;;3.03;1.20;;;12.40;94.10;;;;;;6163652;23;20409;-82
2022/12/29 15:54:02;;;;;;;6.70;1.83;;;12.40;93.40;;;;;;6208514;23;20429;-84
2022/12/29 15:56:36;;;;;;;2.50;1.20;;;12.30;93.70;;;;;;6188692;23;20408;-86
2022/12/29 15:59:22;;;;;;;4.10;1.33;;;12.40;93.80;;;;;;6210676;23;20467;-85
2022/12/29 16:01:55;;;;;;;5.90;2.33;;;12.40;93.70;;;;;;6215037;23;20397;-87
2022/12/29 16:04:30;;;;;;;4.40;1.57;;;12.30;93.50;;;;;;6194317;23;20437;-86
2022/12/29 16:07:51;;;;;;;3.00;1.57;;;12.40;93.10;;;;;;6197691;23;20480;-85
2022/12/29 16:10:40;;;;;;;2.93;1.30;;;12.10;93.20;;;;;;6148706;23;20422;-85
2022/12/29 16:13:28;;;;;;;5.10;1.60;;;12.20;93.40;;;;;;6206872;23;20432;-87
2022/12/29 16:16:40;;;;;;;7.33;2.20;;;12.40;93.10;;;;;;6209427;23;20393;-84
2022/12/29 16:19:21;;;;;;;3.13;1.30;;;12.30;92.70;;;;;;6158320;23;20415;-85
2022/12/29 16:22:01;;;;;;;4.07;1.80;;;12.30;92.90;;;;;;6199837;23;20444;-85
2022/12/29 16:24:42;;;;;;;2.27;1.13;;;12.20;93.10;;;;;;6211569;23;20448;-84
2022/12/29 16:27:37;;;;;;;4.43;1.53;;;12.10;93.20;;;;;;6214399;23;20402;-85
2022/12/29 16:30:30;;;;;;;4.13;1.60;;;11.90;93.70;;;;;;6191454;23;20408;-84
2022/12/29 16:33:03;;;;;;;4.17;1.47;;;12.10;93.40;;;;;;6188995;23;20431;-84
2022/12/29 16:36:19;;;;;;;3.20;1.53;;;12.10;93.00;;;;;;6211374;23;20424;-84
2022/12/29 16:39:35;;;;;;;3.87;1.43;;;12.10;93.20;;;;;;6171143;23;20471;-86
2022/12/29 16:42:43;;;;;;;5.17;1.67;;;12.00;93.30;;;;;;6117344;23;20470;-84
2022/12/29 16:45:28;;;;;;;6.47;1.13;;;12.00;93.50;;;;;;6183900;23;20935;-84
2022/12/29 16:48:05;;;;;;;4.60;1.40;;;12.00;93.80;;;;;;6183272;23;20428;-86
2022/12/29 16:50:42;;;;;;;5.47;1.83;;;12.00;94.10;;;;;;6209030;23;20409;-84